Graettinger, Iowa
Current Conditions -  °F | °C
As of 11:52 AM on Monday 22 Dec 2014 (Local Time) from KEST Reporting Station
Haze Haze  
Wind Chill: 27°   Ceiling: 400
Heat Index: 37°   Visibility: 3mi
Dew Point: 37°   Wind: 20mph
Humidity: 100%   Direction: 150°SSE
Pressure: 29.5"   Gusts: NA
Location:  43.24°N, 94.75°W
Report Text: KEST 221752Z AUTO 15017KT 3SM BR OVC004 03/03 A2950 RMK AO2 SLP000 60004 T00280028 10028 20028 58016
Loading
Personal Weather Stations






























Interactive Weather Map New forecast layout! Learn more

10-Day Weather Forecast

Advertisements
Track Severe Weather on mobile